sensor_id;sensor_type;location;lat;lon;timestamp;P1;durP1;ratioP1;P2;durP2;ratioP2
36379;SDS011;22411;53.016;18.632;2023-07-28T00:01:35;6.10;;;2.30;;
36379;SDS011;22411;53.016;18.632;2023-07-28T00:04:01;3.53;;;2.10;;
36379;SDS011;22411;53.016;18.632;2023-07-28T00:06:29;6.45;;;2.55;;
36379;SDS011;22411;53.016;18.632;2023-07-28T00:08:55;5.95;;;2.03;;
36379;SDS011;22411;53.016;18.632;2023-07-28T00:11:21;4.00;;;2.45;;
36379;SDS011;22411;53.016;18.632;2023-07-28T00:13:46;6.68;;;2.42;;
36379;SDS011;22411;53.016;18.632;2023-07-28T00:16:12;7.88;;;2.33;;
36379;SDS011;22411;53.016;18.632;2023-07-28T00:18:38;5.53;;;2.72;;
36379;SDS011;22411;53.016;18.632;2023-07-28T00:21:04;4.75;;;2.40;;
36379;SDS011;22411;53.016;18.632;2023-07-28T00:23:30;4.57;;;3.20;;
36379;SDS011;22411;53.016;18.632;2023-07-28T00:25:55;6.75;;;3.65;;
36379;SDS011;22411;53.016;18.632;2023-07-28T00:28:21;7.32;;;3.90;;
36379;SDS011;22411;53.016;18.632;2023-07-28T00:30:50;5.68;;;2.67;;
36379;SDS011;22411;53.016;18.632;2023-07-28T00:33:16;4.28;;;3.15;;
36379;SDS011;22411;53.016;18.632;2023-07-28T00:35:42;6.07;;;3.70;;
36379;SDS011;22411;53.016;18.632;2023-07-28T00:38:10;7.82;;;3.58;;
36379;SDS011;22411;53.016;18.632;2023-07-28T00:40:36;6.25;;;3.22;;
36379;SDS011;22411;53.016;18.632;2023-07-28T00:43:01;6.00;;;3.60;;
36379;SDS011;22411;53.016;18.632;2023-07-28T00:45:28;11.77;;;3.22;;
36379;SDS011;22411;53.016;18.632;2023-07-28T00:47:55;7.18;;;3.28;;
36379;SDS011;22411;53.016;18.632;2023-07-28T00:50:23;8.00;;;2.72;;
36379;SDS011;22411;53.016;18.632;2023-07-28T00:52:50;7.00;;;3.40;;
36379;SDS011;22411;53.016;18.632;2023-07-28T00:55:15;5.45;;;2.85;;
36379;SDS011;22411;53.016;18.632;2023-07-28T00:57:42;6.45;;;3.20;;
36379;SDS011;22411;53.016;18.632;2023-07-28T01:00:08;5.93;;;3.45;;
36379;SDS011;22411;53.016;18.632;2023-07-28T01:02:35;7.18;;;3.60;;
36379;SDS011;22411;53.016;18.632;2023-07-28T01:05:01;8.07;;;2.55;;
36379;SDS011;22411;53.016;18.632;2023-07-28T01:07:38;5.82;;;2.97;;
36379;SDS011;22411;53.016;18.632;2023-07-28T01:10:28;7.07;;;3.10;;
36379;SDS011;22411;53.016;18.632;2023-07-28T01:12:57;6.47;;;2.55;;
36379;SDS011;22411;53.016;18.632;2023-07-28T01:15:23;8.60;;;3.10;;
36379;SDS011;22411;53.016;18.632;2023-07-28T01:17:49;3.75;;;2.42;;
36379;SDS011;22411;53.016;18.632;2023-07-28T01:20:15;6.55;;;3.10;;
36379;SDS011;22411;53.016;18.632;2023-07-28T01:25:16;7.57;;;2.67;;
36379;SDS011;22411;53.016;18.632;2023-07-28T01:27:47;6.70;;;2.60;;
36379;SDS011;22411;53.016;18.632;2023-07-28T01:30:15;5.82;;;2.90;;
36379;SDS011;22411;53.016;18.632;2023-07-28T01:32:41;7.50;;;3.30;;
36379;SDS011;22411;53.016;18.632;2023-07-28T01:35:07;8.00;;;3.10;;
36379;SDS011;22411;53.016;18.632;2023-07-28T01:37:33;5.70;;;2.40;;
36379;SDS011;22411;53.016;18.632;2023-07-28T01:39:59;6.78;;;3.08;;
36379;SDS011;22411;53.016;18.632;2023-07-28T01:42:24;8.27;;;3.28;;
36379;SDS011;22411;53.016;18.632;2023-07-28T01:44:50;6.72;;;3.03;;
36379;SDS011;22411;53.016;18.632;2023-07-28T01:47:16;4.13;;;2.60;;
36379;SDS011;22411;53.016;18.632;2023-07-28T01:49:41;5.80;;;2.60;;
36379;SDS011;22411;53.016;18.632;2023-07-28T01:52:07;6.15;;;2.97;;
36379;SDS011;22411;53.016;18.632;2023-07-28T01:54:33;8.30;;;2.75;;
36379;SDS011;22411;53.016;18.632;2023-07-28T01:56:58;4.88;;;2.72;;
36379;SDS011;22411;53.016;18.632;2023-07-28T01:59:24;6.88;;;3.05;;
36379;SDS011;22411;53.016;18.632;2023-07-28T02:01:50;5.32;;;3.38;;
36379;SDS011;22411;53.016;18.632;2023-07-28T02:04:15;6.03;;;2.40;;
36379;SDS011;22411;53.016;18.632;2023-07-28T02:06:41;5.03;;;3.10;;
36379;SDS011;22411;53.016;18.632;2023-07-28T02:09:07;5.10;;;2.78;;
36379;SDS011;22411;53.016;18.632;2023-07-28T02:11:33;5.07;;;3.05;;
36379;SDS011;22411;53.016;18.632;2023-07-28T02:13:59;6.80;;;2.63;;
36379;SDS011;22411;53.016;18.632;2023-07-28T02:16:25;4.45;;;2.90;;
36379;SDS011;22411;53.016;18.632;2023-07-28T02:18:53;4.97;;;2.30;;
36379;SDS011;22411;53.016;18.632;2023-07-28T02:21:19;4.65;;;2.50;;
36379;SDS011;22411;53.016;18.632;2023-07-28T02:23:45;4.43;;;2.85;;
36379;SDS011;22411;53.016;18.632;2023-07-28T02:26:11;4.30;;;2.83;;
36379;SDS011;22411;53.016;18.632;2023-07-28T02:28:36;4.05;;;2.40;;
36379;SDS011;22411;53.016;18.632;2023-07-28T02:31:02;5.50;;;2.08;;
36379;SDS011;22411;53.016;18.632;2023-07-28T02:33:28;4.90;;;2.60;;
36379;SDS011;22411;53.016;18.632;2023-07-28T02:35:55;2.97;;;2.35;;
36379;SDS011;22411;53.016;18.632;2023-07-28T02:38:21;4.30;;;2.47;;
36379;SDS011;22411;53.016;18.632;2023-07-28T02:40:47;3.22;;;2.55;;
36379;SDS011;22411;53.016;18.632;2023-07-28T02:43:13;2.92;;;1.80;;
36379;SDS011;22411;53.016;18.632;2023-07-28T02:45:38;3.92;;;1.88;;
36379;SDS011;22411;53.016;18.632;2023-07-28T02:48:04;4.88;;;2.50;;
36379;SDS011;22411;53.016;18.632;2023-07-28T02:50:30;4.00;;;2.28;;
36379;SDS011;22411;53.016;18.632;2023-07-28T02:52:56;4.50;;;2.13;;
36379;SDS011;22411;53.016;18.632;2023-07-28T02:55:21;3.90;;;1.98;;
36379;SDS011;22411;53.016;18.632;2023-07-28T02:57:47;3.75;;;2.40;;
36379;SDS011;22411;53.016;18.632;2023-07-28T03:00:13;2.95;;;2.00;;
36379;SDS011;22411;53.016;18.632;2023-07-28T03:02:39;2.80;;;1.98;;
36379;SDS011;22411;53.016;18.632;2023-07-28T03:05:05;4.07;;;2.25;;
36379;SDS011;22411;53.016;18.632;2023-07-28T03:07:31;4.20;;;2.30;;
36379;SDS011;22411;53.016;18.632;2023-07-28T03:09:57;3.22;;;2.33;;
36379;SDS011;22411;53.016;18.632;2023-07-28T03:12:23;3.88;;;2.58;;
36379;SDS011;22411;53.016;18.632;2023-07-28T03:14:48;4.63;;;1.98;;
36379;SDS011;22411;53.016;18.632;2023-07-28T03:17:14;6.15;;;2.45;;
36379;SDS011;22411;53.016;18.632;2023-07-28T03:19:40;3.00;;;2.00;;
36379;SDS011;22411;53.016;18.632;2023-07-28T03:22:05;4.65;;;1.73;;
36379;SDS011;22411;53.016;18.632;2023-07-28T03:24:31;3.92;;;2.30;;
36379;SDS011;22411;53.016;18.632;2023-07-28T03:26:57;4.03;;;2.72;;
36379;SDS011;22411;53.016;18.632;2023-07-28T03:29:22;2.97;;;1.90;;
36379;SDS011;22411;53.016;18.632;2023-07-28T03:31:48;3.70;;;1.55;;
36379;SDS011;22411;53.016;18.632;2023-07-28T03:34:14;3.22;;;1.90;;
36379;SDS011;22411;53.016;18.632;2023-07-28T03:36:39;2.67;;;1.85;;
36379;SDS011;22411;53.016;18.632;2023-07-28T03:39:05;4.45;;;1.77;;
36379;SDS011;22411;53.016;18.632;2023-07-28T03:41:30;3.22;;;2.35;;
36379;SDS011;22411;53.016;18.632;2023-07-28T03:43:56;5.20;;;2.40;;
36379;SDS011;22411;53.016;18.632;2023-07-28T03:46:22;3.65;;;1.85;;
36379;SDS011;22411;53.016;18.632;2023-07-28T03:48:48;6.40;;;1.73;;
36379;SDS011;22411;53.016;18.632;2023-07-28T03:51:13;5.00;;;2.15;;
36379;SDS011;22411;53.016;18.632;2023-07-28T03:53:39;3.90;;;1.70;;
36379;SDS011;22411;53.016;18.632;2023-07-28T03:56:05;2.85;;;1.85;;
36379;SDS011;22411;53.016;18.632;2023-07-28T03:58:31;5.57;;;1.98;;
36379;SDS011;22411;53.016;18.632;2023-07-28T04:00:56;3.75;;;2.35;;
36379;SDS011;22411;53.016;18.632;2023-07-28T04:03:22;4.82;;;2.40;;
36379;SDS011;22411;53.016;18.632;2023-07-28T04:05:48;5.03;;;2.13;;
36379;SDS011;22411;53.016;18.632;2023-07-28T04:08:13;4.88;;;2.00;;
36379;SDS011;22411;53.016;18.632;2023-07-28T04:10:39;4.10;;;2.22;;
36379;SDS011;22411;53.016;18.632;2023-07-28T04:13:05;3.78;;;1.90;;
36379;SDS011;22411;53.016;18.632;2023-07-28T04:15:30;5.18;;;2.10;;
36379;SDS011;22411;53.016;18.632;2023-07-28T04:17:56;3.13;;;1.63;;
36379;SDS011;22411;53.016;18.632;2023-07-28T04:20:22;2.55;;;1.65;;
36379;SDS011;22411;53.016;18.632;2023-07-28T04:22:47;2.47;;;1.85;;
36379;SDS011;22411;53.016;18.632;2023-07-28T04:25:13;3.25;;;2.03;;
36379;SDS011;22411;53.016;18.632;2023-07-28T04:27:38;4.57;;;2.25;;
36379;SDS011;22411;53.016;18.632;2023-07-28T04:30:05;3.28;;;2.40;;
36379;SDS011;22411;53.016;18.632;2023-07-28T04:32:31;5.40;;;2.17;;
36379;SDS011;22411;53.016;18.632;2023-07-28T04:34:56;3.47;;;2.47;;
36379;SDS011;22411;53.016;18.632;2023-07-28T04:37:22;3.42;;;2.05;;
36379;SDS011;22411;53.016;18.632;2023-07-28T04:39:48;4.38;;;2.20;;
36379;SDS011;22411;53.016;18.632;2023-07-28T04:42:13;4.18;;;2.10;;
36379;SDS011;22411;53.016;18.632;2023-07-28T04:44:39;6.00;;;2.35;;
36379;SDS011;22411;53.016;18.632;2023-07-28T04:47:05;3.08;;;2.20;;
36379;SDS011;22411;53.016;18.632;2023-07-28T04:49:31;4.63;;;2.35;;
36379;SDS011;22411;53.016;18.632;2023-07-28T04:51:57;5.65;;;2.13;;
36379;SDS011;22411;53.016;18.632;2023-07-28T04:54:23;3.85;;;2.20;;
36379;SDS011;22411;53.016;18.632;2023-07-28T04:56:50;3.55;;;2.13;;
36379;SDS011;22411;53.016;18.632;2023-07-28T04:59:18;3.83;;;2.15;;
36379;SDS011;22411;53.016;18.632;2023-07-28T05:01:44;3.10;;;2.70;;
36379;SDS011;22411;53.016;18.632;2023-07-28T05:04:10;3.05;;;2.72;;
36379;SDS011;22411;53.016;18.632;2023-07-28T05:06:35;2.55;;;2.25;;
36379;SDS011;22411;53.016;18.632;2023-07-28T05:09:01;4.45;;;3.20;;
36379;SDS011;22411;53.016;18.632;2023-07-28T05:11:27;3.15;;;2.65;;
36379;SDS011;22411;53.016;18.632;2023-07-28T05:13:53;4.13;;;2.70;;
36379;SDS011;22411;53.016;18.632;2023-07-28T05:16:18;3.47;;;2.75;;
36379;SDS011;22411;53.016;18.632;2023-07-28T05:18:44;4.93;;;2.78;;
36379;SDS011;22411;53.016;18.632;2023-07-28T05:21:09;5.07;;;3.20;;
36379;SDS011;22411;53.016;18.632;2023-07-28T05:23:35;4.00;;;3.40;;
36379;SDS011;22411;53.016;18.632;2023-07-28T05:26:00;4.63;;;2.85;;
36379;SDS011;22411;53.016;18.632;2023-07-28T05:28:26;5.80;;;3.60;;
36379;SDS011;22411;53.016;18.632;2023-07-28T05:30:52;6.85;;;3.45;;
36379;SDS011;22411;53.016;18.632;2023-07-28T05:33:17;4.10;;;3.70;;
36379;SDS011;22411;53.016;18.632;2023-07-28T05:35:43;6.35;;;4.25;;
36379;SDS011;22411;53.016;18.632;2023-07-28T05:38:09;7.13;;;3.75;;
36379;SDS011;22411;53.016;18.632;2023-07-28T05:40:34;4.32;;;2.90;;
36379;SDS011;22411;53.016;18.632;2023-07-28T05:43:00;6.35;;;3.50;;
36379;SDS011;22411;53.016;18.632;2023-07-28T05:45:25;4.25;;;3.85;;
36379;SDS011;22411;53.016;18.632;2023-07-28T05:47:51;5.38;;;3.80;;
36379;SDS011;22411;53.016;18.632;2023-07-28T05:50:17;6.00;;;4.15;;
36379;SDS011;22411;53.016;18.632;2023-07-28T05:52:43;4.97;;;3.78;;
36379;SDS011;22411;53.016;18.632;2023-07-28T05:55:08;6.78;;;4.68;;
36379;SDS011;22411;53.016;18.632;2023-07-28T05:57:34;6.13;;;4.30;;
36379;SDS011;22411;53.016;18.632;2023-07-28T05:59:59;4.50;;;3.95;;
36379;SDS011;22411;53.016;18.632;2023-07-28T06:02:25;4.60;;;4.00;;
36379;SDS011;22411;53.016;18.632;2023-07-28T06:04:51;5.05;;;3.97;;
36379;SDS011;22411;53.016;18.632;2023-07-28T06:07:17;5.13;;;3.83;;
36379;SDS011;22411;53.016;18.632;2023-07-28T06:09:43;8.95;;;5.57;;
36379;SDS011;22411;53.016;18.632;2023-07-28T06:12:09;5.75;;;5.25;;
36379;SDS011;22411;53.016;18.632;2023-07-28T06:14:35;5.00;;;3.97;;
36379;SDS011;22411;53.016;18.632;2023-07-28T06:17:00;5.35;;;4.40;;
36379;SDS011;22411;53.016;18.632;2023-07-28T06:19:26;5.88;;;4.70;;
36379;SDS011;22411;53.016;18.632;2023-07-28T06:21:52;5.28;;;4.78;;
36379;SDS011;22411;53.016;18.632;2023-07-28T06:24:18;5.20;;;4.60;;
36379;SDS011;22411;53.016;18.632;2023-07-28T06:26:44;5.85;;;4.82;;
36379;SDS011;22411;53.016;18.632;2023-07-28T06:29:10;6.07;;;5.47;;
36379;SDS011;22411;53.016;18.632;2023-07-28T06:31:36;5.72;;;5.15;;
36379;SDS011;22411;53.016;18.632;2023-07-28T06:34:01;7.40;;;4.95;;
36379;SDS011;22411;53.016;18.632;2023-07-28T06:36:27;6.28;;;5.00;;
36379;SDS011;22411;53.016;18.632;2023-07-28T06:38:53;6.65;;;4.68;;
36379;SDS011;22411;53.016;18.632;2023-07-28T06:41:23;5.97;;;5.28;;
36379;SDS011;22411;53.016;18.632;2023-07-28T06:43:49;5.03;;;4.63;;
36379;SDS011;22411;53.016;18.632;2023-07-28T06:46:15;6.97;;;4.78;;
36379;SDS011;22411;53.016;18.632;2023-07-28T06:48:40;7.13;;;5.10;;
36379;SDS011;22411;53.016;18.632;2023-07-28T06:51:06;6.40;;;5.07;;
36379;SDS011;22411;53.016;18.632;2023-07-28T06:53:32;5.90;;;5.40;;
36379;SDS011;22411;53.016;18.632;2023-07-28T06:56:00;6.30;;;4.80;;
36379;SDS011;22411;53.016;18.632;2023-07-28T06:58:25;6.90;;;6.03;;
36379;SDS011;22411;53.016;18.632;2023-07-28T07:00:51;5.65;;;5.15;;
36379;SDS011;22411;53.016;18.632;2023-07-28T07:03:17;7.20;;;5.65;;
36379;SDS011;22411;53.016;18.632;2023-07-28T07:05:43;6.05;;;4.90;;
36379;SDS011;22411;53.016;18.632;2023-07-28T07:08:09;5.05;;;4.60;;
36379;SDS011;22411;53.016;18.632;2023-07-28T07:10:34;6.47;;;5.25;;
36379;SDS011;22411;53.016;18.632;2023-07-28T07:13:00;6.38;;;4.68;;
36379;SDS011;22411;53.016;18.632;2023-07-28T07:15:26;5.90;;;5.10;;
36379;SDS011;22411;53.016;18.632;2023-07-28T07:17:51;6.95;;;4.95;;
36379;SDS011;22411;53.016;18.632;2023-07-28T07:20:17;6.18;;;4.88;;
36379;SDS011;22411;53.016;18.632;2023-07-28T07:22:43;5.03;;;4.53;;
36379;SDS011;22411;53.016;18.632;2023-07-28T07:25:08;11.07;;;4.45;;
36379;SDS011;22411;53.016;18.632;2023-07-28T07:27:34;5.38;;;4.75;;
36379;SDS011;22411;53.016;18.632;2023-07-28T07:30:00;4.05;;;3.70;;
36379;SDS011;22411;53.016;18.632;2023-07-28T07:32:25;7.55;;;5.45;;
36379;SDS011;22411;53.016;18.632;2023-07-28T07:34:51;4.45;;;4.05;;
36379;SDS011;22411;53.016;18.632;2023-07-28T07:37:18;7.43;;;4.38;;
36379;SDS011;22411;53.016;18.632;2023-07-28T07:39:44;4.28;;;3.30;;
36379;SDS011;22411;53.016;18.632;2023-07-28T07:42:10;4.85;;;3.00;;
36379;SDS011;22411;53.016;18.632;2023-07-28T07:44:37;5.25;;;2.28;;
36379;SDS011;22411;53.016;18.632;2023-07-28T07:47:10;2.22;;;2.03;;
36379;SDS011;22411;53.016;18.632;2023-07-28T07:49:37;3.05;;;1.83;;
36379;SDS011;22411;53.016;18.632;2023-07-28T07:52:03;3.05;;;1.73;;
36379;SDS011;22411;53.016;18.632;2023-07-28T07:54:30;9.30;;;8.40;;
36379;SDS011;22411;53.016;18.632;2023-07-28T07:56:56;5.90;;;4.90;;
36379;SDS011;22411;53.016;18.632;2023-07-28T07:59:22;3.50;;;3.20;;
36379;SDS011;22411;53.016;18.632;2023-07-28T08:01:47;3.20;;;2.80;;
36379;SDS011;22411;53.016;18.632;2023-07-28T08:04:13;3.78;;;2.90;;
36379;SDS011;22411;53.016;18.632;2023-07-28T08:06:39;3.75;;;3.45;;
36379;SDS011;22411;53.016;18.632;2023-07-28T08:09:05;4.28;;;3.88;;
36379;SDS011;22411;53.016;18.632;2023-07-28T08:11:31;4.18;;;3.78;;
36379;SDS011;22411;53.016;18.632;2023-07-28T08:13:57;5.20;;;3.97;;
36379;SDS011;22411;53.016;18.632;2023-07-28T08:16:23;4.07;;;3.75;;
36379;SDS011;22411;53.016;18.632;2023-07-28T08:18:49;4.55;;;4.15;;
36379;SDS011;22411;53.016;18.632;2023-07-28T08:21:14;3.88;;;3.58;;
36379;SDS011;22411;53.016;18.632;2023-07-28T08:23:40;4.57;;;4.20;;
36379;SDS011;22411;53.016;18.632;2023-07-28T08:26:06;4.85;;;4.45;;
36379;SDS011;22411;53.016;18.632;2023-07-28T08:28:31;3.97;;;3.60;;
36379;SDS011;22411;53.016;18.632;2023-07-28T08:30:58;4.25;;;3.95;;
36379;SDS011;22411;53.016;18.632;2023-07-28T08:33:24;4.90;;;4.40;;
36379;SDS011;22411;53.016;18.632;2023-07-28T08:35:50;4.85;;;4.38;;
36379;SDS011;22411;53.016;18.632;2023-07-28T08:38:16;4.40;;;4.00;;
36379;SDS011;22411;53.016;18.632;2023-07-28T08:40:43;4.55;;;4.20;;
36379;SDS011;22411;53.016;18.632;2023-07-28T08:43:09;4.65;;;3.83;;
36379;SDS011;22411;53.016;18.632;2023-07-28T08:45:35;4.95;;;4.63;;
36379;SDS011;22411;53.016;18.632;2023-07-28T08:48:01;5.75;;;5.20;;
36379;SDS011;22411;53.016;18.632;2023-07-28T08:50:27;5.50;;;5.00;;
36379;SDS011;22411;53.016;18.632;2023-07-28T08:52:53;5.57;;;4.88;;
36379;SDS011;22411;53.016;18.632;2023-07-28T08:55:19;6.47;;;5.82;;
36379;SDS011;22411;53.016;18.632;2023-07-28T08:57:45;4.78;;;4.47;;
36379;SDS011;22411;53.016;18.632;2023-07-28T09:00:11;5.47;;;5.07;;
36379;SDS011;22411;53.016;18.632;2023-07-28T09:02:42;5.60;;;5.10;;
36379;SDS011;22411;53.016;18.632;2023-07-28T09:05:18;5.65;;;5.10;;
36379;SDS011;22411;53.016;18.632;2023-07-28T09:07:45;5.88;;;5.38;;
36379;SDS011;22411;53.016;18.632;2023-07-28T09:10:11;7.15;;;5.40;;
36379;SDS011;22411;53.016;18.632;2023-07-28T09:12:44;7.40;;;6.57;;
36379;SDS011;22411;53.016;18.632;2023-07-28T09:15:13;5.63;;;5.22;;
36379;SDS011;22411;53.016;18.632;2023-07-28T09:17:43;6.22;;;5.72;;
36379;SDS011;22411;53.016;18.632;2023-07-28T09:20:12;6.70;;;6.10;;
36379;SDS011;22411;53.016;18.632;2023-07-28T09:22:39;7.40;;;6.70;;
36379;SDS011;22411;53.016;18.632;2023-07-28T09:25:14;6.55;;;5.95;;
36379;SDS011;22411;53.016;18.632;2023-07-28T09:27:49;6.15;;;5.60;;
36379;SDS011;22411;53.016;18.632;2023-07-28T09:30:16;7.97;;;7.28;;
36379;SDS011;22411;53.016;18.632;2023-07-28T09:32:46;8.13;;;7.30;;
36379;SDS011;22411;53.016;18.632;2023-07-28T09:35:16;7.05;;;6.45;;
36379;SDS011;22411;53.016;18.632;2023-07-28T09:37:43;7.60;;;6.90;;
36379;SDS011;22411;53.016;18.632;2023-07-28T09:40:10;8.13;;;7.30;;
36379;SDS011;22411;53.016;18.632;2023-07-28T09:42:41;7.28;;;6.78;;
36379;SDS011;22411;53.016;18.632;2023-07-28T09:45:08;7.47;;;6.78;;
36379;SDS011;22411;53.016;18.632;2023-07-28T09:47:36;8.32;;;7.32;;
36379;SDS011;22411;53.016;18.632;2023-07-28T09:50:03;7.60;;;6.90;;
36379;SDS011;22411;53.016;18.632;2023-07-28T09:52:34;6.93;;;6.28;;
36379;SDS011;22411;53.016;18.632;2023-07-28T09:55:07;8.98;;;6.65;;
36379;SDS011;22411;53.016;18.632;2023-07-28T10:00:34;6.25;;;5.75;;
36379;SDS011;22411;53.016;18.632;2023-07-28T10:03:03;7.53;;;6.82;;
36379;SDS011;22411;53.016;18.632;2023-07-28T10:05:29;8.70;;;7.93;;
36379;SDS011;22411;53.016;18.632;2023-07-28T10:07:55;7.38;;;6.78;;
36379;SDS011;22411;53.016;18.632;2023-07-28T10:10:22;6.70;;;6.13;;
36379;SDS011;22411;53.016;18.632;2023-07-28T10:12:49;8.68;;;7.78;;
36379;SDS011;22411;53.016;18.632;2023-07-28T10:15:16;7.00;;;6.38;;
36379;SDS011;22411;53.016;18.632;2023-07-28T10:17:53;8.20;;;7.50;;
36379;SDS011;22411;53.016;18.632;2023-07-28T10:23:04;7.88;;;7.18;;
36379;SDS011;22411;53.016;18.632;2023-07-28T10:25:37;8.70;;;7.97;;
36379;SDS011;22411;53.016;18.632;2023-07-28T10:28:04;9.35;;;8.45;;
36379;SDS011;22411;53.016;18.632;2023-07-28T10:30:37;7.88;;;7.20;;
36379;SDS011;22411;53.016;18.632;2023-07-28T10:42:00;7.75;;;6.97;;
36379;SDS011;22411;53.016;18.632;2023-07-28T10:44:25;7.50;;;6.90;;
36379;SDS011;22411;53.016;18.632;2023-07-28T10:46:52;6.55;;;6.05;;
36379;SDS011;22411;53.016;18.632;2023-07-28T10:49:18;7.65;;;6.95;;
36379;SDS011;22411;53.016;18.632;2023-07-28T10:51:44;7.72;;;7.13;;
36379;SDS011;22411;53.016;18.632;2023-07-28T10:54:10;6.20;;;5.70;;
36379;SDS011;22411;53.016;18.632;2023-07-28T10:56:40;6.00;;;5.50;;
36379;SDS011;22411;53.016;18.632;2023-07-28T10:59:06;6.78;;;6.20;;
36379;SDS011;22411;53.016;18.632;2023-07-28T11:01:36;6.65;;;6.00;;
36379;SDS011;22411;53.016;18.632;2023-07-28T11:04:36;5.10;;;4.70;;
36379;SDS011;22411;53.016;18.632;2023-07-28T11:06:55;5.00;;;4.60;;
36379;SDS011;22411;53.016;18.632;2023-07-28T11:09:22;5.63;;;5.13;;
36379;SDS011;22411;53.016;18.632;2023-07-28T11:11:51;3.08;;;2.78;;
36379;SDS011;22411;53.016;18.632;2023-07-28T11:14:17;5.90;;;2.72;;
36379;SDS011;22411;53.016;18.632;2023-07-28T11:16:43;5.20;;;3.95;;
36379;SDS011;22411;53.016;18.632;2023-07-28T11:19:13;3.05;;;2.85;;
36379;SDS011;22411;53.016;18.632;2023-07-28T11:21:44;2.70;;;2.50;;
36379;SDS011;22411;53.016;18.632;2023-07-28T11:24:17;2.50;;;2.13;;
36379;SDS011;22411;53.016;18.632;2023-07-28T11:26:44;2.53;;;1.17;;
36379;SDS011;22411;53.016;18.632;2023-07-28T11:29:11;3.35;;;3.05;;
36379;SDS011;22411;53.016;18.632;2023-07-28T11:31:37;3.72;;;3.42;;
36379;SDS011;22411;53.016;18.632;2023-07-28T11:34:02;2.53;;;1.73;;
36379;SDS011;22411;53.016;18.632;2023-07-28T11:36:29;2.92;;;1.73;;
36379;SDS011;22411;53.016;18.632;2023-07-28T11:38:59;3.58;;;2.70;;
36379;SDS011;22411;53.016;18.632;2023-07-28T11:41:26;2.85;;;2.17;;
36379;SDS011;22411;53.016;18.632;2023-07-28T11:43:53;1.30;;;0.80;;
36379;SDS011;22411;53.016;18.632;2023-07-28T11:46:35;3.05;;;1.75;;
36379;SDS011;22411;53.016;18.632;2023-07-28T11:51:40;4.00;;;1.98;;
36379;SDS011;22411;53.016;18.632;2023-07-28T11:54:11;2.22;;;1.85;;
36379;SDS011;22411;53.016;18.632;2023-07-28T11:56:42;2.30;;;1.42;;
36379;SDS011;22411;53.016;18.632;2023-07-28T11:59:09;1.65;;;1.35;;
36379;SDS011;22411;53.016;18.632;2023-07-28T12:01:35;3.72;;;2.20;;
36379;SDS011;22411;53.016;18.632;2023-07-28T12:04:22;4.85;;;2.53;;
36379;SDS011;22411;53.016;18.632;2023-07-28T12:07:02;3.45;;;1.38;;
36379;SDS011;22411;53.016;18.632;2023-07-28T12:12:25;2.78;;;1.83;;
36379;SDS011;22411;53.016;18.632;2023-07-28T12:14:52;3.97;;;2.90;;
36379;SDS011;22411;53.016;18.632;2023-07-28T12:17:19;4.10;;;3.70;;
36379;SDS011;22411;53.016;18.632;2023-07-28T12:19:58;3.30;;;3.00;;
36379;SDS011;22411;53.016;18.632;2023-07-28T12:22:42;4.03;;;3.30;;
36379;SDS011;22411;53.016;18.632;2023-07-28T12:25:08;3.40;;;3.10;;
36379;SDS011;22411;53.016;18.632;2023-07-28T12:27:35;2.70;;;2.50;;
36379;SDS011;22411;53.016;18.632;2023-07-28T12:30:01;4.45;;;2.58;;
36379;SDS011;22411;53.016;18.632;2023-07-28T12:32:28;2.58;;;2.30;;
36379;SDS011;22411;53.016;18.632;2023-07-28T12:34:54;3.42;;;2.50;;
36379;SDS011;22411;53.016;18.632;2023-07-28T12:37:19;3.35;;;2.72;;
36379;SDS011;22411;53.016;18.632;2023-07-28T12:39:47;2.88;;;2.67;;
36379;SDS011;22411;53.016;18.632;2023-07-28T12:42:14;4.25;;;3.30;;
36379;SDS011;22411;53.016;18.632;2023-07-28T12:44:40;4.03;;;3.60;;
36379;SDS011;22411;53.016;18.632;2023-07-28T12:47:07;2.88;;;2.67;;
36379;SDS011;22411;53.016;18.632;2023-07-28T12:49:33;2.75;;;2.55;;
36379;SDS011;22411;53.016;18.632;2023-07-28T12:52:00;2.47;;;2.28;;
36379;SDS011;22411;53.016;18.632;2023-07-28T12:54:26;2.92;;;2.42;;
36379;SDS011;22411;53.016;18.632;2023-07-28T12:56:55;2.65;;;2.45;;
36379;SDS011;22411;53.016;18.632;2023-07-28T12:59:21;2.85;;;2.65;;
36379;SDS011;22411;53.016;18.632;2023-07-28T13:01:47;2.53;;;2.33;;
36379;SDS011;22411;53.016;18.632;2023-07-28T13:04:13;2.78;;;2.58;;
36379;SDS011;22411;53.016;18.632;2023-07-28T13:06:39;2.28;;;2.08;;
36379;SDS011;22411;53.016;18.632;2023-07-28T13:09:06;3.08;;;2.58;;
36379;SDS011;22411;53.016;18.632;2023-07-28T13:11:33;3.15;;;2.22;;
36379;SDS011;22411;53.016;18.632;2023-07-28T13:14:00;2.63;;;2.42;;
36379;SDS011;22411;53.016;18.632;2023-07-28T13:16:25;3.03;;;2.83;;
36379;SDS011;22411;53.016;18.632;2023-07-28T13:18:52;3.30;;;3.00;;
36379;SDS011;22411;53.016;18.632;2023-07-28T13:21:18;4.05;;;3.65;;
36379;SDS011;22411;53.016;18.632;2023-07-28T13:23:44;3.80;;;3.10;;
36379;SDS011;22411;53.016;18.632;2023-07-28T13:26:09;4.20;;;3.35;;
36379;SDS011;22411;53.016;18.632;2023-07-28T13:28:35;4.05;;;3.75;;
36379;SDS011;22411;53.016;18.632;2023-07-28T13:31:01;3.85;;;3.30;;
36379;SDS011;22411;53.016;18.632;2023-07-28T13:33:28;4.15;;;3.85;;
36379;SDS011;22411;53.016;18.632;2023-07-28T13:35:54;4.30;;;3.42;;
36379;SDS011;22411;53.016;18.632;2023-07-28T13:38:19;3.50;;;3.20;;
36379;SDS011;22411;53.016;18.632;2023-07-28T13:40:45;2.67;;;2.47;;
36379;SDS011;22411;53.016;18.632;2023-07-28T13:43:10;3.08;;;2.67;;
36379;SDS011;22411;53.016;18.632;2023-07-28T13:45:36;1.88;;;1.60;;
36379;SDS011;22411;53.016;18.632;2023-07-28T13:48:02;1.65;;;1.50;;
36379;SDS011;22411;53.016;18.632;2023-07-28T13:50:28;2.25;;;1.50;;
36379;SDS011;22411;53.016;18.632;2023-07-28T13:52:54;1.90;;;1.80;;
36379;SDS011;22411;53.016;18.632;2023-07-28T13:55:19;2.65;;;2.05;;
36379;SDS011;22411;53.016;18.632;2023-07-28T13:57:45;2.00;;;1.65;;
36379;SDS011;22411;53.016;18.632;2023-07-28T14:00:11;2.17;;;2.00;;
36379;SDS011;22411;53.016;18.632;2023-07-28T14:02:38;2.47;;;2.28;;
36379;SDS011;22411;53.016;18.632;2023-07-28T14:05:04;2.25;;;2.05;;
36379;SDS011;22411;53.016;18.632;2023-07-28T14:07:31;2.53;;;2.33;;
36379;SDS011;22411;53.016;18.632;2023-07-28T14:09:57;2.33;;;1.95;;
36379;SDS011;22411;53.016;18.632;2023-07-28T14:12:22;3.05;;;2.00;;
36379;SDS011;22411;53.016;18.632;2023-07-28T14:14:48;3.13;;;2.70;;
36379;SDS011;22411;53.016;18.632;2023-07-28T14:17:17;3.58;;;3.35;;
36379;SDS011;22411;53.016;18.632;2023-07-28T14:19:43;2.78;;;2.20;;
36379;SDS011;22411;53.016;18.632;2023-07-28T14:22:08;2.88;;;2.63;;
36379;SDS011;22411;53.016;18.632;2023-07-28T14:24:34;3.67;;;2.40;;
36379;SDS011;22411;53.016;18.632;2023-07-28T14:27:00;2.22;;;2.03;;
36379;SDS011;22411;53.016;18.632;2023-07-28T14:29:26;3.22;;;2.45;;
36379;SDS011;22411;53.016;18.632;2023-07-28T14:31:52;2.53;;;1.65;;
36379;SDS011;22411;53.016;18.632;2023-07-28T14:34:19;1.85;;;1.35;;
36379;SDS011;22411;53.016;18.632;2023-07-28T14:36:44;2.80;;;1.42;;
36379;SDS011;22411;53.016;18.632;2023-07-28T14:39:10;1.25;;;1.10;;
36379;SDS011;22411;53.016;18.632;2023-07-28T14:41:36;1.58;;;1.05;;
36379;SDS011;22411;53.016;18.632;2023-07-28T14:44:02;2.20;;;1.10;;
36379;SDS011;22411;53.016;18.632;2023-07-28T14:46:28;1.30;;;1.00;;
36379;SDS011;22411;53.016;18.632;2023-07-28T14:48:54;1.35;;;1.13;;
36379;SDS011;22411;53.016;18.632;2023-07-28T14:51:20;1.33;;;1.05;;
36379;SDS011;22411;53.016;18.632;2023-07-28T14:53:46;1.10;;;0.80;;